Time;durP1;ratioP1;P1;durP2;ratioP2;P2;SDS_P1;SDS_P2;PMS_P1;PMS_P2;Temp;Humidity;BMP_temperature;BMP_pressure;BME280_temperature;BME280_humidity;BME280_pressure;Samples;Min_cycle;Max_cycle;Signal;HPM_P1;HPM_P2
2021/03/21 00:00:36;;;;;;;8.25;6.47;;;;;;;0.78;57.76;95931.66;5012816;28;20038;-77
2021/03/21 00:03:02;;;;;;;7.72;6.45;;;;;;;0.57;58.23;95929.53;5012593;28;20141;-78
2021/03/21 00:05:28;;;;;;;9.00;6.47;;;;;;;0.80;57.72;95918.31;5012503;28;20042;-75
2021/03/21 00:07:59;;;;;;;8.13;6.03;;;;;;;0.56;58.41;95933.94;5012450;28;20045;-78
2021/03/21 00:10:26;;;;;;;7.75;6.95;;;;;;;0.51;58.51;95931.19;5014469;28;20045;-78
2021/03/21 00:12:53;;;;;;;8.68;6.03;;;;;;;0.70;58.34;95918.84;5012743;28;20076;-77
2021/03/21 00:15:19;;;;;;;8.00;6.15;;;;;;;0.92;58.10;95933.06;4997745;28;20034;-78
2021/03/21 00:17:44;;;;;;;9.07;7.40;;;;;;;1.02;57.68;95912.38;4985207;28;20052;-77
2021/03/21 00:20:11;;;;;;;10.35;6.50;;;;;;;1.26;57.49;95917.63;5012125;28;20073;-78
2021/03/21 00:22:37;;;;;;;6.93;6.22;;;;;;;1.06;56.70;95901.41;5011100;28;20041;-78
2021/03/21 00:25:06;;;;;;;7.80;6.78;;;;;;;1.08;56.83;95917.72;4994538;28;20030;-77
2021/03/21 00:27:31;;;;;;;6.90;6.20;;;;;;;0.94;56.74;95912.69;4991137;28;20026;-78
2021/03/21 00:29:57;;;;;;;8.60;6.93;;;;;;;0.99;57.01;95907.56;5011962;28;20526;-77
2021/03/21 00:32:22;;;;;;;7.32;6.45;;;;;;;1.18;57.39;95923.22;5011786;28;20030;-78
2021/03/21 00:34:48;;;;;;;7.40;6.63;;;;;;;0.72;57.65;95919.44;5011802;28;20658;-78
2021/03/21 00:37:13;;;;;;;7.50;6.80;;;;;;;0.91;57.74;95915.72;5013864;28;20159;-78
2021/03/21 00:39:38;;;;;;;10.82;6.43;;;;;;;0.72;57.54;95906.34;5011984;28;20030;-77
2021/03/21 00:42:04;;;;;;;8.15;6.82;;;;;;;0.88;57.83;95920.63;5011900;28;20109;-77
2021/03/21 00:44:30;;;;;;;7.65;6.20;;;;;;;0.92;57.47;95903.44;5003884;28;20034;-78
2021/03/21 00:46:55;;;;;;;7.82;6.35;;;;;;;0.93;57.30;95886.72;4995252;28;20034;-77
2021/03/21 00:49:20;;;;;;;8.68;7.00;;;;;;;1.12;57.19;95897.88;5013502;28;20034;-77
2021/03/21 00:51:46;;;;;;;11.88;6.38;;;;;;;1.17;56.98;95906.66;5011492;28;20038;-77
2021/03/21 00:54:11;;;;;;;7.90;6.65;;;;;;;1.22;56.88;95893.69;5011449;28;20515;-77
2021/03/21 00:56:39;;;;;;;8.73;6.47;;;;;;;1.09;56.48;95901.78;5011538;28;20273;-77
2021/03/21 00:59:05;;;;;;;8.48;6.35;;;;;;;0.63;56.97;95881.50;5011249;28;20041;-78
2021/03/21 01:01:33;;;;;;;7.10;5.68;;;;;;;0.78;57.50;95897.59;5011309;28;20034;-77
2021/03/21 01:03:59;;;;;;;7.40;6.55;;;;;;;0.83;57.78;95881.22;5013563;28;20031;-77
2021/03/21 01:06:24;;;;;;;7.22;5.75;;;;;;;0.82;56.70;95892.69;5011503;28;20045;-77
2021/03/21 01:08:55;;;;;;;7.63;6.50;;;;;;;0.86;57.04;95881.56;5011026;28;20164;-76
2021/03/21 01:11:29;;;;;;;8.20;6.43;;;;;;;0.79;57.52;95883.47;5011053;28;20049;-77
2021/03/21 01:13:55;;;;;;;8.90;6.32;;;;;;;0.62;57.46;95874.69;5011244;28;20304;-77
2021/03/21 01:16:27;;;;;;;7.05;6.35;;;;;;;0.91;57.21;95878.25;5012212;28;20057;-78
2021/03/21 01:18:53;;;;;;;6.85;6.15;;;;;;;0.93;57.00;95878.84;5011416;28;20044;-77
2021/03/21 01:21:22;;;;;;;7.53;6.82;;;;;;;1.03;56.60;95877.28;5010878;28;20400;-77
2021/03/21 01:23:48;;;;;;;6.20;5.53;;;;;;;0.97;55.83;95872.94;5010988;28;20048;-76
2021/03/21 01:26:15;;;;;;;7.05;6.35;;;;;;;1.11;55.86;95880.59;5011243;28;20033;-77
2021/03/21 01:28:42;;;;;;;7.07;6.30;;;;;;;0.68;55.88;95860.69;5010565;28;20034;-78
2021/03/21 01:31:11;;;;;;;5.97;5.47;;;;;;;0.98;55.57;95866.69;5013299;28;20101;-77
2021/03/21 01:33:37;;;;;;;6.30;5.55;;;;;;;0.81;55.41;95862.31;5011008;28;20081;-75
2021/03/21 01:36:07;;;;;;;6.28;5.68;;;;;;;1.00;55.39;95855.97;5010871;28;20074;-77
2021/03/21 01:38:32;;;;;;;7.10;5.70;;;;;;;0.64;55.19;95818.44;5010733;28;20120;-77
2021/03/21 01:41:03;;;;;;;8.90;5.75;;;;;;;0.94;55.20;95851.63;5010863;28;20068;-77
2021/03/21 01:43:32;;;;;;;6.65;5.90;;;;;;;1.09;55.16;95845.97;5012991;28;20030;-78
2021/03/21 01:45:58;;;;;;;6.80;5.97;;;;;;;1.06;55.15;95833.31;5011254;28;20045;-77
2021/03/21 01:48:32;;;;;;;6.97;5.75;;;;;;;0.95;55.34;95837.50;5010246;28;20046;-78
2021/03/21 01:51:01;;;;;;;5.85;4.90;;;;;;;0.95;54.29;95837.50;5010408;28;20499;-76
2021/03/21 01:53:30;;;;;;;6.97;5.63;;;;;;;0.98;54.08;95819.53;5010673;28;20038;-78
2021/03/21 01:55:56;;;;;;;6.15;5.55;;;;;;;0.48;55.19;95835.59;5010694;28;20038;-78
2021/03/21 01:58:24;;;;;;;6.05;5.50;;;;;;;0.16;55.35;95808.84;5012416;28;20030;-78
2021/03/21 02:00:54;;;;;;;6.50;5.88;;;;;;;0.70;55.27;95825.38;5010799;28;20048;-77
2021/03/21 02:03:20;;;;;;;6.35;5.75;;;;;;;0.78;54.66;95819.84;4995669;28;20041;-77
2021/03/21 02:05:47;;;;;;;9.55;5.97;;;;;;;0.87;54.61;95801.97;5001625;28;20046;-77
2021/03/21 02:08:22;;;;;;;6.28;5.53;;;;;;;1.07;54.37;95814.72;5014132;28;20030;-78
2021/03/21 02:11:02;;;;;;;8.88;6.18;;;;;;;1.12;54.24;95806.19;5014163;28;20033;-77
2021/03/21 02:13:50;;;;;;;7.88;5.70;;;;;;;1.21;54.04;95784.66;5016282;28;20029;-78
2021/03/21 02:16:24;;;;;;;6.93;6.22;;;;;;;1.41;53.96;95800.03;5014871;28;20112;-77
2021/03/21 02:19:13;;;;;;;7.00;5.72;;;;;;;1.50;53.67;95800.47;4995242;28;20058;-77
2021/03/21 02:21:55;;;;;;;6.30;5.78;;;;;;;1.46;52.85;95813.25;5011769;28;20074;-79
2021/03/21 02:24:45;;;;;;;7.20;6.03;;;;;;;1.22;52.84;95812.44;5014563;28;20450;-79
2021/03/21 02:27:20;;;;;;;5.75;5.15;;;;;;;1.09;52.71;95814.53;5000969;28;20038;-79
2021/03/21 02:30:10;;;;;;;7.45;5.60;;;;;;;1.25;53.27;95813.84;5005265;28;20103;-76
2021/03/21 02:32:47;;;;;;;6.60;5.57;;;;;;;1.34;53.50;95802.00;5014273;28;20042;-79
2021/03/21 02:35:39;;;;;;;7.40;5.35;;;;;;;1.44;53.45;95793.53;4997209;28;20042;-77
2021/03/21 02:38:31;;;;;;;5.60;5.10;;;;;;;1.42;53.36;95785.09;5014133;28;20037;-77
2021/03/21 02:41:03;;;;;;;5.80;5.20;;;;;;;1.47;52.81;95788.63;5013498;28;20373;-79
2021/03/21 02:43:52;;;;;;;6.40;5.38;;;;;;;1.54;52.78;95785.88;5015877;28;20034;-77
2021/03/21 02:46:24;;;;;;;5.88;5.28;;;;;;;1.39;52.96;95778.50;5014701;28;20038;-79
2021/03/21 02:48:55;;;;;;;5.75;5.15;;;;;;;1.49;52.82;95775.31;5013566;28;20042;-78
2021/03/21 02:51:36;;;;;;;5.90;5.30;;;;;;;1.43;52.87;95778.81;5013847;28;20065;-79
2021/03/21 02:54:09;;;;;;;6.65;5.32;;;;;;;1.44;53.08;95756.84;5013759;28;20038;-78
2021/03/21 02:56:37;;;;;;;5.47;4.88;;;;;;;1.56;53.09;95774.13;5013928;28;20068;-78
2021/03/21 02:59:08;;;;;;;7.80;5.18;;;;;;;1.48;52.76;95773.69;5013498;28;20589;-74
2021/03/21 03:01:49;;;;;;;6.80;5.60;;;;;;;1.41;52.75;95773.81;5013938;28;20073;-79
2021/03/21 03:04:20;;;;;;;7.35;5.47;;;;;;;1.28;52.76;95763.59;5015805;28;20129;-80
2021/03/21 03:07:02;;;;;;;5.90;5.35;;;;;;;1.24;53.49;95767.69;5014054;28;20130;-79
2021/03/21 03:09:39;;;;;;;6.05;5.43;;;;;;;1.28;53.88;95761.78;5013987;28;20048;-78
2021/03/21 03:12:10;;;;;;;6.25;5.30;;;;;;;1.33;53.47;95766.28;5013588;28;20053;-79
2021/03/21 03:14:39;;;;;;;6.10;5.22;;;;;;;1.15;53.51;95748.91;5013576;28;20061;-79
2021/03/21 03:17:45;;;;;;;6.07;5.47;;;;;;;1.34;53.56;95756.63;5013470;28;20044;-79
2021/03/21 03:20:23;;;;;;;5.60;5.10;;;;;;;1.41;54.12;95758.09;5008587;28;20061;-79
2021/03/21 03:23:10;;;;;;;6.13;5.53;;;;;;;1.38;54.02;95755.91;5012712;28;20030;-78
2021/03/21 03:25:50;;;;;;;7.00;5.80;;;;;;;1.35;53.77;95750.34;5012398;28;20041;-79
2021/03/21 03:28:36;;;;;;;6.03;5.40;;;;;;;1.14;54.38;95743.91;5014365;28;20455;-78
2021/03/21 03:31:22;;;;;;;6.45;5.53;;;;;;;1.24;54.37;95749.34;5012128;28;20115;-80
2021/03/21 03:33:48;;;;;;;5.53;4.97;;;;;;;1.00;54.53;95745.94;5012329;28;20038;-78
2021/03/21 03:36:16;;;;;;;7.57;5.65;;;;;;;1.19;54.43;95744.00;5013051;28;20049;-78
2021/03/21 03:38:45;;;;;;;6.63;5.65;;;;;;;1.28;54.01;95747.88;5012951;28;20042;-78
2021/03/21 03:41:35;;;;;;;7.03;5.72;;;;;;;0.96;54.59;95740.34;5013285;28;20100;-79
2021/03/21 03:44:22;;;;;;;6.50;5.72;;;;;;;1.10;54.67;95735.69;5013274;28;20042;-80
2021/03/21 03:47:25;;;;;;;7.22;5.45;;;;;;;0.79;54.72;95734.22;5012638;28;20083;-78
2021/03/21 03:50:01;;;;;;;5.53;5.03;;;;;;;0.80;54.82;95727.16;4942426;28;20052;-78
2021/03/21 03:52:42;;;;;;;10.48;5.10;;;;;;;0.73;55.46;95719.41;5014454;28;20026;-78
2021/03/21 03:55:45;;;;;;;6.05;5.45;;;;;;;1.00;55.24;95725.78;5013093;28;20049;-77
2021/03/21 03:58:21;;;;;;;6.53;5.47;;;;;;;0.88;54.47;95709.28;4914038;29;20048;-79
2021/03/21 04:00:59;;;;;;;5.97;5.38;;;;;;;1.08;54.48;95705.50;4912996;29;20067;-78
2021/03/21 04:03:49;;;;;;;6.03;4.90;;;;;;;1.23;54.84;95708.47;4958136;28;20050;-79
2021/03/21 04:06:19;;;;;;;6.65;5.22;;;;;;;1.29;54.28;95708.31;5007110;28;20408;-79
2021/03/21 04:09:08;;;;;;;7.00;5.55;;;;;;;1.16;53.77;95700.69;5012282;28;20074;-78
2021/03/21 04:11:45;;;;;;;6.28;5.68;;;;;;;1.31;54.26;95708.09;5011324;28;20619;-79
2021/03/21 04:14:18;;;;;;;6.10;4.90;;;;;;;1.14;53.56;95708.00;5012145;28;20038;-79
2021/03/21 04:17:23;;;;;;;6.13;5.18;;;;;;;0.70;53.73;95701.53;5010616;28;20054;-78
2021/03/21 04:20:28;;;;;;;6.10;5.22;;;;;;;0.96;53.91;95697.66;4967477;28;20425;-78
2021/03/21 04:23:12;;;;;;;6.03;4.85;;;;;;;1.09;54.04;95700.03;4951707;28;20098;-77
2021/03/21 04:25:42;;;;;;;5.45;4.82;;;;;;;1.19;53.58;95697.63;5007830;28;20124;-78
2021/03/21 04:28:15;;;;;;;5.93;5.32;;;;;;;1.07;53.43;95669.84;5014450;28;20476;-78
2021/03/21 04:30:47;;;;;;;7.82;5.45;;;;;;;1.22;53.50;95688.50;4993737;28;20416;-79
2021/03/21 04:33:17;;;;;;;7.60;5.97;;;;;;;1.32;53.32;95686.06;4996489;28;20437;-78
2021/03/21 04:35:57;;;;;;;5.53;5.00;;;;;;;1.34;53.04;95689.28;5001688;28;20037;-78
2021/03/21 04:38:32;;;;;;;5.95;5.00;;;;;;;1.36;52.90;95687.22;5011811;28;20064;-79
2021/03/21 04:40:58;;;;;;;6.40;5.15;;;;;;;1.37;53.16;95685.38;5012089;28;20084;-77
2021/03/21 04:43:40;;;;;;;6.05;4.90;;;;;;;1.39;53.03;95676.28;5013763;28;20049;-77
2021/03/21 04:46:12;;;;;;;7.70;5.20;;;;;;;1.24;53.20;95684.63;5012441;28;20038;-79
2021/03/21 04:48:38;;;;;;;6.28;4.93;;;;;;;1.34;52.99;95684.03;4994522;28;20046;-79
2021/03/21 04:51:09;;;;;;;5.55;4.90;;;;;;;1.32;52.91;95685.28;5004765;28;20038;-76
2021/03/21 04:53:50;;;;;;;5.07;4.55;;;;;;;1.02;52.95;95692.31;5011353;28;20068;-76
2021/03/21 04:56:38;;;;;;;5.82;5.10;;;;;;;1.33;53.33;95684.25;5011651;28;20058;-77
2021/03/21 04:59:13;;;;;;;6.18;5.22;;;;;;;1.28;52.83;95690.22;5011359;28;20038;-77
2021/03/21 05:01:49;;;;;;;7.25;5.13;;;;;;;1.16;52.93;95684.19;5011636;28;20076;-79
2021/03/21 05:04:19;;;;;;;6.07;4.93;;;;;;;0.87;53.67;95693.78;5013529;28;20030;-78
2021/03/21 05:06:59;;;;;;;5.60;5.07;;;;;;;0.89;53.24;95687.31;5011500;28;20034;-79
2021/03/21 05:09:32;;;;;;;5.38;4.70;;;;;;;0.49;54.60;95702.88;5011499;28;20511;-77
2021/03/21 05:12:03;;;;;;;6.15;4.88;;;;;;;0.37;54.87;95694.25;5011392;28;20034;-77
2021/03/21 05:14:40;;;;;;;4.83;4.40;;;;;;;0.13;55.92;95701.25;5003436;28;20085;-77
2021/03/21 05:17:37;;;;;;;5.63;4.90;;;;;;;0.36;54.90;95685.59;4996461;28;20113;-79
2021/03/21 05:20:24;;;;;;;5.97;4.88;;;;;;;-0.15;56.30;95705.28;5010879;28;20037;-78
2021/03/21 05:23:01;;;;;;;5.20;4.70;;;;;;;0.27;55.95;95683.53;4993788;28;20088;-76
2021/03/21 05:25:34;;;;;;;6.88;5.18;;;;;;;0.41;55.47;95704.03;4995563;28;20030;-81
2021/03/21 05:28:05;;;;;;;5.95;4.20;;;;;;;-0.21;57.59;95706.13;5010406;28;20046;-79
2021/03/21 05:30:33;;;;;;;5.60;4.45;;;;;;;-0.12;56.87;95688.31;5011037;28;20046;-80
2021/03/21 05:33:00;;;;;;;4.97;4.57;;;;;;;0.32;56.39;95696.75;5011084;28;20125;-79
2021/03/21 05:35:29;;;;;;;7.72;3.97;;;;;;;0.00;56.22;95697.03;5011116;28;20029;-79
2021/03/21 05:38:19;;;;;;;5.72;4.00;;;;;;;-0.33;57.33;95705.31;5011051;28;20065;-79
2021/03/21 05:41:03;;;;;;;8.07;3.95;;;;;;;-0.13;57.14;95707.66;5010945;28;20034;-80
2021/03/21 05:43:56;;;;;;;4.38;3.97;;;;;;;0.18;56.67;95702.16;5012996;28;20092;-77
2021/03/21 05:46:42;;;;;;;4.72;4.15;;;;;;;0.07;57.40;95699.53;5011435;28;20044;-79
2021/03/21 05:49:19;;;;;;;5.15;4.22;;;;;;;0.16;56.63;95699.00;5011365;28;20050;-79
2021/03/21 05:52:36;;;;;;;4.63;4.00;;;;;;;0.34;56.46;95702.53;4993138;28;20569;-78
2021/03/21 05:55:39;;;;;;;6.43;4.32;;;;;;;0.39;56.57;95705.28;4978288;28;20041;-78
2021/03/21 05:58:34;;;;;;;5.15;4.38;;;;;;;0.71;55.75;95692.66;5010121;28;20399;-79
2021/03/21 06:01:18;;;;;;;6.25;4.90;;;;;;;0.75;55.90;95688.56;4971094;28;20149;-78
2021/03/21 06:04:16;;;;;;;5.93;4.60;;;;;;;1.04;55.00;95692.06;5010917;28;20176;-79
2021/03/21 06:07:08;;;;;;;6.18;4.40;;;;;;;1.16;54.19;95692.03;4966927;28;20532;-79
2021/03/21 06:09:45;;;;;;;;;;;;;;;1.36;54.40;95683.78;5011074;28;20037;-76
2021/03/21 06:12:34;;;;;;;6.88;4.40;;;;;;;1.77;54.05;95673.03;5010418;28;19925;-78
2021/03/21 06:15:18;;;;;;;4.78;4.10;;;;;;;2.01;53.15;95671.09;4998391;28;20050;-80
2021/03/21 06:18:19;;;;;;;5.00;4.50;;;;;;;2.19;52.78;95679.78;5000931;28;20068;-80
2021/03/21 06:21:21;;;;;;;4.35;3.88;;;;;;;2.32;51.77;95667.16;4950736;28;20045;-80
2021/03/21 06:24:09;;;;;;;5.53;3.90;;;;;;;2.19;51.64;95658.78;5010837;28;20500;-80
2021/03/21 06:26:57;;;;;;;4.70;3.90;;;;;;;2.06;51.65;95660.69;5010652;28;20038;-80
2021/03/21 06:30:09;;;;;;;5.05;4.40;;;;;;;2.16;51.86;95654.03;4973728;28;20037;-79
2021/03/21 06:32:34;;;;;;;4.70;3.78;;;;;;;2.23;51.94;95660.69;5010801;28;20054;-78
2021/03/21 06:35:22;;;;;;;7.70;4.00;;;;;;;2.26;51.01;95654.19;5010611;28;20049;-78
2021/03/21 06:38:15;;;;;;;5.47;4.10;;;;;;;2.28;51.57;95652.13;5010361;28;20490;-80
2021/03/21 06:41:17;;;;;;;4.78;4.22;;;;;;;2.55;51.24;95641.75;5009355;28;20022;-79
2021/03/21 06:43:51;;;;;;;5.00;3.67;;;;;;;2.66;50.87;95648.72;4991069;28;20030;-79
2021/03/21 06:46:50;;;;;;;5.07;3.78;;;;;;;2.60;50.16;95645.25;4992967;28;20019;-78
2021/03/21 06:49:32;;;;;;;4.03;3.30;;;;;;;3.10;49.65;95625.94;5011383;28;20034;-79
2021/03/21 06:52:02;;;;;;;4.68;3.83;;;;;;;3.21;49.40;95632.09;4990377;28;20054;-79
2021/03/21 06:54:44;;;;;;;4.07;3.58;;;;;;;3.47;48.99;95632.41;4993342;28;20074;-80
2021/03/21 06:57:44;;;;;;;5.43;3.50;;;;;;;3.49;47.62;95632.97;4994493;28;20074;-79
2021/03/21 07:00:22;;;;;;;4.80;3.72;;;;;;;2.96;48.50;95632.59;4977215;28;20064;-80
2021/03/21 07:03:07;;;;;;;3.88;3.15;;;;;;;2.50;49.98;95626.72;4994956;28;20065;-79
2021/03/21 07:05:58;;;;;;;4.10;3.40;;;;;;;2.35;49.76;95631.72;5003132;28;20132;-79
2021/03/21 07:09:06;;;;;;;5.25;4.00;;;;;;;2.62;48.75;95636.34;5010101;28;20450;-80
2021/03/21 07:11:47;;;;;;;3.88;3.47;;;;;;;2.64;49.59;95632.44;4985697;28;20511;-80
2021/03/21 07:14:52;;;;;;;4.78;3.10;;;;;;;2.20;48.99;95600.00;4996748;28;20042;-80
2021/03/21 07:17:54;;;;;;;3.30;3.00;;;;;;;2.75;48.69;95625.47;4995204;28;20050;-72
2021/03/21 07:20:25;;;;;;;5.57;3.28;;;;;;;2.68;48.89;95617.78;5007386;28;20044;-81
2021/03/21 07:23:20;;;;;;;6.10;3.57;;;;;;;3.13;47.02;95616.78;4996787;28;28422;-80
2021/03/21 07:25:45;;;;;;;4.85;3.15;;;;;;;3.43;46.87;95618.97;5013573;28;20710;-80
2021/03/21 07:28:26;;;;;;;4.93;3.63;;;;;;;3.73;47.10;95618.47;5015436;28;20018;-80
2021/03/21 07:31:05;;;;;;;5.97;3.38;;;;;;;3.32;45.98;95614.63;5013266;28;20042;-79
2021/03/21 07:33:49;;;;;;;4.30;3.55;;;;;;;3.40;47.44;95611.56;4995387;28;20060;-77
2021/03/21 07:36:49;;;;;;;6.05;3.10;;;;;;;3.25;46.68;95606.94;5012966;28;20057;-73
2021/03/21 07:39:36;;;;;;;4.45;3.63;;;;;;;2.88;46.87;95595.44;5011964;28;20116;-78
2021/03/21 07:42:18;;;;;;;4.68;3.20;;;;;;;2.60;48.21;95602.44;5012317;28;20045;-73
2021/03/21 07:45:11;;;;;;;6.45;4.18;;;;;;;2.51;46.55;95601.28;5012718;28;20245;-70
2021/03/21 07:48:03;;;;;;;4.43;2.90;;;;;;;3.56;46.22;95586.22;5001048;28;20496;-72
2021/03/21 07:51:05;;;;;;;3.50;3.13;;;;;;;3.77;45.80;95577.47;5010845;28;20077;-72
2021/03/21 07:53:33;;;;;;;10.50;3.63;;;;;;;3.56;45.25;95568.59;5010892;28;20365;-74
2021/03/21 07:56:12;;;;;;;6.13;3.42;;;;;;;3.46;45.50;95573.75;5010751;28;20112;-71
2021/03/21 07:58:48;;;;;;;3.30;2.75;;;;;;;3.65;45.05;95577.63;5010636;28;20033;-71
2021/03/21 08:01:17;;;;;;;3.60;3.30;;;;;;;2.88;46.28;95593.63;5012892;28;20080;-76
2021/03/21 08:04:22;;;;;;;3.97;3.08;;;;;;;3.28;46.55;95595.13;5011292;28;20036;-72
2021/03/21 08:06:58;;;;;;;5.38;3.08;;;;;;;3.29;47.18;95594.09;4994023;28;20516;-71
2021/03/21 08:09:32;;;;;;;2.88;2.50;;;;;;;2.28;46.98;95607.50;4994094;28;20037;-71
2021/03/21 08:12:18;;;;;;;3.80;3.40;;;;;;;2.22;48.63;95603.22;5011577;28;20038;-75
2021/03/21 08:14:47;;;;;;;3.53;3.05;;;;;;;2.35;47.89;95592.34;4991255;28;20366;-72
2021/03/21 08:17:24;;;;;;;3.80;2.90;;;;;;;2.93;46.37;95585.00;4998103;28;20041;-66
2021/03/21 08:19:57;;;;;;;4.63;3.60;;;;;;;3.40;46.06;95593.16;5011193;28;20054;-76
2021/03/21 08:22:26;;;;;;;3.28;2.70;;;;;;;2.68;46.03;95594.16;5013072;28;20021;-71
2021/03/21 08:24:55;;;;;;;6.07;3.50;;;;;;;3.13;46.77;95593.13;5011402;28;20060;-68
2021/03/21 08:27:27;;;;;;;4.03;3.50;;;;;;;3.38;47.60;95588.16;5011122;28;20045;-69
2021/03/21 08:30:00;;;;;;;4.28;3.25;;;;;;;3.41;44.75;95594.75;5011472;28;20030;-83
2021/03/21 08:32:28;;;;;;;3.33;3.03;;;;;;;2.45;47.67;95594.34;5011144;28;20045;-73
2021/03/21 08:34:54;;;;;;;4.13;3.08;;;;;;;2.47;47.34;95594.91;4991103;28;20647;-70
2021/03/21 08:37:28;;;;;;;3.75;3.35;;;;;;;2.69;47.76;95585.22;4993627;28;20033;-73
2021/03/21 08:40:08;;;;;;;4.32;3.20;;;;;;;2.97;46.60;95589.53;5010852;28;20158;-75
2021/03/21 08:42:40;;;;;;;4.72;3.28;;;;;;;2.27;48.55;95590.16;5010751;28;20038;-74
2021/03/21 08:45:29;;;;;;;5.45;3.30;;;;;;;2.16;48.03;95598.91;4993247;28;20112;-74
2021/03/21 08:48:16;;;;;;;5.22;3.47;;;;;;;2.50;48.33;95592.56;5011680;28;20038;-79
2021/03/21 08:50:48;;;;;;;4.53;2.90;;;;;;;2.51;48.13;95588.94;5010899;28;20034;-74
2021/03/21 08:53:38;;;;;;;3.10;2.83;;;;;;;1.71;49.78;95602.38;5010656;28;20554;-74
2021/03/21 08:56:22;;;;;;;6.95;3.88;;;;;;;2.16;49.58;95588.41;5011700;28;20117;-79
2021/03/21 08:58:51;;;;;;;8.52;3.08;;;;;;;2.31;48.27;95578.16;5011496;28;20040;-82
2021/03/21 09:01:19;;;;;;;3.28;2.95;;;;;;;2.77;48.70;95563.78;5013222;28;20072;-78
2021/03/21 09:03:46;;;;;;;7.32;3.90;;;;;;;2.72;47.58;95561.09;5011468;28;20045;-78
2021/03/21 09:06:34;;;;;;;4.72;3.63;;;;;;;2.50;48.02;95565.53;5011197;28;20038;-77
2021/03/21 09:09:36;;;;;;;3.58;3.00;;;;;;;2.88;47.91;95564.72;5011070;28;20038;-78
2021/03/21 09:12:28;;;;;;;3.15;2.85;;;;;;;2.28;48.79;95565.50;4993520;28;20030;-76
2021/03/21 09:15:27;;;;;;;4.17;2.67;;;;;;;1.86;50.07;95555.44;4993713;28;20030;-79
2021/03/21 09:18:17;;;;;;;4.03;3.30;;;;;;;2.02;49.74;95561.69;4967615;28;20092;-80
2021/03/21 09:20:53;;;;;;;3.70;3.22;;;;;;;2.33;48.01;95568.97;5000656;28;20030;-75
2021/03/21 09:23:31;;;;;;;4.82;3.80;;;;;;;2.24;48.47;95567.00;5011085;28;20107;-75
2021/03/21 09:25:58;;;;;;;3.65;3.17;;;;;;;1.71;49.40;95573.53;4992737;28;20369;-75
2021/03/21 09:28:32;;;;;;;3.78;3.30;;;;;;;2.07;49.23;95567.03;5012732;28;20514;-76
2021/03/21 09:31:01;;;;;;;4.32;3.92;;;;;;;2.10;49.71;95561.31;5011303;28;20029;-77
2021/03/21 09:33:40;;;;;;;3.83;3.42;;;;;;;2.16;48.92;95565.59;5010637;28;20041;-78
2021/03/21 09:36:17;;;;;;;3.05;2.65;;;;;;;1.73;49.47;95555.72;5011143;28;20026;-71
2021/03/21 09:38:52;;;;;;;3.95;3.60;;;;;;;2.04;48.53;95562.25;5010423;28;20038;-77
2021/03/21 09:41:18;;;;;;;6.85;3.72;;;;;;;2.43;47.76;95559.66;5009928;28;20288;-72
2021/03/21 09:43:48;;;;;;;5.80;3.25;;;;;;;1.76;48.94;95542.16;5010141;28;20125;-73
2021/03/21 09:46:19;;;;;;;4.28;3.25;;;;;;;2.01;50.02;95568.78;5012823;28;20014;-81
2021/03/21 09:49:13;;;;;;;4.60;3.80;;;;;;;2.03;49.10;95571.94;4974615;28;20049;-75
2021/03/21 09:51:52;;;;;;;4.88;3.67;;;;;;;2.37;48.34;95574.56;5006734;28;20403;-74
2021/03/21 09:54:17;;;;;;;4.03;3.47;;;;;;;2.52;48.19;95576.59;4992929;28;20038;-79
2021/03/21 09:56:52;;;;;;;4.18;3.67;;;;;;;2.78;48.14;95556.72;5010758;28;20107;-79
2021/03/21 09:59:29;;;;;;;4.28;3.75;;;;;;;2.20;48.92;95581.63;5011065;28;20027;-81
2021/03/21 10:02:01;;;;;;;5.88;3.47;;;;;;;2.81;47.96;95564.88;5007478;28;20444;-72
2021/03/21 10:04:55;;;;;;;4.57;3.40;;;;;;;2.37;48.54;95579.00;4974731;28;20477;-71
2021/03/21 10:07:30;;;;;;;5.40;3.40;;;;;;;2.41;48.71;95573.03;5010461;28;20515;-74
2021/03/21 10:09:58;;;;;;;3.25;2.95;;;;;;;2.25;48.59;95574.66;5008889;28;20523;-71
2021/03/21 10:12:24;;;;;;;3.70;3.10;;;;;;;3.02;48.19;95568.56;4992825;28;20484;-72
2021/03/21 10:14:59;;;;;;;4.03;3.30;;;;;;;2.71;48.24;95551.63;5000927;28;20061;-72
2021/03/21 10:17:27;;;;;;;5.43;3.75;;;;;;;2.69;48.36;95564.22;5001873;28;20121;-74
2021/03/21 10:19:56;;;;;;;4.53;3.55;;;;;;;3.10;47.56;95552.34;4992710;28;20361;-73
2021/03/21 10:22:21;;;;;;;3.40;3.10;;;;;;;3.11;47.88;95547.88;5011426;28;20033;-73
2021/03/21 10:25:10;;;;;;;5.47;3.80;;;;;;;3.10;48.45;95543.66;4973956;28;20137;-72
2021/03/21 10:27:43;;;;;;;4.30;2.95;;;;;;;1.74;50.57;95524.03;4978047;28;20068;-78
2021/03/21 10:30:09;;;;;;;4.68;3.42;;;;;;;2.26;49.95;95549.19;5014034;28;20478;-74
2021/03/21 10:32:37;;;;;;;3.60;3.30;;;;;;;2.26;49.71;95544.75;4996103;28;20116;-80
2021/03/21 10:35:04;;;;;;;4.43;3.40;;;;;;;2.04;51.20;95541.25;5014486;28;20424;-80
2021/03/21 10:37:42;;;;;;;5.05;3.40;;;;;;;2.38;51.24;95542.00;5016603;28;20025;-79
2021/03/21 10:40:23;;;;;;;6.32;3.67;;;;;;;3.04;49.82;95540.19;5014216;28;20046;-80
2021/03/21 10:42:52;;;;;;;4.32;3.65;;;;;;;2.66;50.00;95516.63;5014962;28;20046;-82
2021/03/21 10:45:33;;;;;;;8.23;3.35;;;;;;;3.74;47.59;95530.63;5015083;28;20036;-83
2021/03/21 10:48:19;;;;;;;4.80;3.92;;;;;;;3.16;48.41;95534.78;5002656;28;20097;-83
2021/03/21 10:50:59;;;;;;;5.53;3.63;;;;;;;3.08;48.51;95538.66;4964182;28;20069;-75
2021/03/21 10:53:32;;;;;;;5.55;3.80;;;;;;;3.43;48.36;95539.25;5001210;28;20077;-76
2021/03/21 10:56:06;;;;;;;6.70;3.90;;;;;;;3.00;48.72;95540.94;4995734;28;20042;-75
2021/03/21 10:58:40;;;;;;;6.95;3.35;;;;;;;3.40;47.72;95535.31;4995168;28;20116;-76
2021/03/21 11:03:47;;;;;;;4.38;3.78;;;;;;;3.51;47.49;95523.03;5014303;28;20125;-80
2021/03/21 11:06:19;;;;;;;4.47;3.63;;;;;;;2.98;48.63;95514.91;4999137;28;20046;-84
2021/03/21 11:08:44;;;;;;;5.43;3.92;;;;;;;4.02;47.81;95518.97;5004509;28;20049;-81
2021/03/21 11:11:17;;;;;;;6.15;3.47;;;;;;;3.61;48.92;95526.56;5013834;28;20038;-81
2021/03/21 11:13:43;;;;;;;4.78;3.22;;;;;;;2.33;52.27;95508.59;4995688;28;20076;-83
2021/03/21 11:16:11;;;;;;;4.85;3.88;;;;;;;3.88;49.45;95492.28;5015285;28;20033;-77
2021/03/21 11:18:37;;;;;;;4.82;4.07;;;;;;;3.92;48.76;95509.16;5013060;28;20045;-85
2021/03/21 11:21:08;;;;;;;5.22;4.30;;;;;;;3.64;50.06;95515.53;5014136;28;20133;-76
2021/03/21 11:23:54;;;;;;;4.57;4.10;;;;;;;4.12;48.20;95497.97;5013482;28;20042;-82
2021/03/21 11:26:25;;;;;;;5.55;3.83;;;;;;;3.80;49.17;95498.03;4996159;28;20045;-80
2021/03/21 11:28:53;;;;;;;3.92;3.08;;;;;;;2.94;51.71;95486.75;5009953;28;20494;-74
2021/03/21 11:31:51;;;;;;;5.45;4.20;;;;;;;3.91;49.42;95488.38;4994936;28;20034;-77
2021/03/21 11:34:19;;;;;;;5.47;4.53;;;;;;;4.08;48.85;95489.00;5011767;28;20133;-76
2021/03/21 11:36:59;;;;;;;5.13;4.18;;;;;;;3.62;49.71;95490.50;4991623;28;20046;-74
2021/03/21 11:39:34;;;;;;;5.75;4.32;;;;;;;3.69;49.63;95493.75;4990454;28;20061;-83
2021/03/21 11:42:00;;;;;;;6.05;4.30;;;;;;;4.29;48.69;95481.22;4983236;28;20049;-83
2021/03/21 11:44:31;;;;;;;6.35;4.50;;;;;;;4.06;49.68;95493.75;4983810;28;20164;-81
2021/03/21 11:47:11;;;;;;;3.73;2.57;;;;;;;2.15;53.42;95490.53;5012252;28;20100;-83
2021/03/21 11:49:38;;;;;;;6.60;3.08;;;;;;;1.98;55.15;95498.41;5012591;28;20100;-81
2021/03/21 11:52:05;;;;;;;6.40;4.45;;;;;;;1.65;55.61;95485.34;4997733;28;20021;-83
2021/03/21 11:54:34;;;;;;;5.05;3.45;;;;;;;1.41;56.90;95506.44;5013311;28;20063;-81
2021/03/21 11:57:00;;;;;;;9.10;3.60;;;;;;;1.92;55.68;95493.34;5001149;28;20085;-82
2021/03/21 11:59:32;;;;;;;5.65;3.95;;;;;;;2.06;55.40;95487.53;5001001;28;20084;-83
2021/03/21 12:01:58;;;;;;;7.13;3.97;;;;;;;2.15;54.89;95492.34;5013060;28;20042;-84
2021/03/21 12:04:39;;;;;;;4.88;3.53;;;;;;;2.32;54.54;95487.84;5013772;28;20086;-73
2021/03/21 12:07:04;;;;;;;8.70;4.68;;;;;;;2.07;55.63;95468.09;4994471;28;20042;-69
2021/03/21 12:09:49;;;;;;;7.63;4.38;;;;;;;1.91;55.69;95471.56;4994055;28;20076;-76
2021/03/21 12:12:33;;;;;;;4.68;3.88;;;;;;;1.93;55.33;95479.97;5010013;28;20041;-80
2021/03/21 12:14:58;;;;;;;7.22;4.85;;;;;;;1.97;55.34;95448.81;4993915;28;20773;-79
2021/03/21 12:17:24;;;;;;;5.53;4.68;;;;;;;2.62;54.70;95465.63;4993990;28;20038;-76
2021/03/21 12:19:51;;;;;;;7.18;4.70;;;;;;;2.63;54.56;95454.09;5011912;28;20404;-77
2021/03/21 12:22:33;;;;;;;6.32;4.28;;;;;;;2.59;53.92;95457.19;4996236;28;20044;-79
2021/03/21 12:25:16;;;;;;;6.75;4.32;;;;;;;2.20;55.85;95456.47;5012427;28;20041;-76
2021/03/21 12:27:42;;;;;;;4.38;3.53;;;;;;;2.38;54.52;95459.84;5011507;28;20129;-78
2021/03/21 12:30:28;;;;;;;6.65;4.15;;;;;;;2.57;54.66;95459.28;5011419;28;20132;-68